PWSweather.com
Personal Weather Stations
Station Observations
TARRYHILL
Tarrytown, NY 10591

Tarrytown, NY 10591

Lat: 41.05185, Lon: -73.85296

Elevation: 341

Station Type: Davis Vantage Vue

www.tarrytownnyweather.com

High Low Average
Temperature 45.1°F7.3°F 23.5°F-4.7°F 32.4°F0.2°F
Dew Point 22.5°F-5.3°F 7.2°F-13.8°F 11.7°F-11.3°F
Winds 4.8 mph NNW7.7 mph NNW Calm Calm 2.0 mph 3.2 mph
Wind Gusts 14.0 mph22.5 mph -- 4.4 mph7.1 mph
Humidity 80% 23% 44%
Pressure 30.28 in1025.40 in 30.10 in1019.30 in -
Precipitation 0.00 in0.00 in - -
Hour Temp Dew Point Humidity Winds Wind Gusts Pressure Precip Precip Rate Daily Precip Total
12:00 AM 25.2°F-3.8°C 19.6°F-6.9°C 79% 2.1 mph WNW3.4 kmh WNW 8.0 mph12.9 kmh 30.11 in1019.6 mb - 0.00 in0.0 mm 0.00 in0.0 mm
12:10 AM 24.8°F-4.0°C 19.2°F-7.1°C 79% 3.1 mph NNW5.0 kmh NNW 5.0 mph8.0 kmh 30.11 in1019.6 mb - 0.00 in0.0 mm 0.00 in0.0 mm
12:20 AM 24.7°F-4.1°C 19.1°F-7.2°C 79% 2.3 mph NW3.7 kmh NW 5.0 mph8.0 kmh 30.11 in1019.6 mb - 0.00 in0.0 mm 0.00 in0.0 mm
12:30 AM 24.6°F-4.1°C 19.0°F-7.2°C 79% 0.9 mph NW1.4 kmh NW 3.0 mph4.8 kmh 30.12 in1020.0 mb - 0.00 in0.0 mm 0.00 in0.0 mm
12:40 AM 24.6°F-4.1°C 19.0°F-7.2°C 79% 2.2 mph WSW3.5 kmh WSW 6.0 mph9.7 kmh 30.12 in1020.0 mb - 0.00 in0.0 mm 0.00 in0.0 mm
12:50 AM 24.4°F-4.2°C 19.1°F-7.2°C 80% 2.6 mph NW4.2 kmh NW 6.0 mph9.7 kmh 30.12 in1020.0 mb - 0.00 in0.0 mm 0.00 in0.0 mm
01:00 AM 24.3°F-4.3°C 19.0°F-7.2°C 80% 3.3 mph NW5.3 kmh NW 6.0 mph9.7 kmh 30.12 in1020.0 mb - 0.00 in0.0 mm 0.00 in0.0 mm
01:10 AM 24.0°F-4.4°C 18.7°F-7.4°C 80% 2.6 mph WNW4.2 kmh WNW 3.0 mph4.8 kmh 30.12 in1020.0 mb - 0.00 in0.0 mm 0.00 in0.0 mm
01:20 AM 23.9°F-4.5°C 18.7°F-7.4°C 80% 2.1 mph NW3.4 kmh NW 7.0 mph11.3 kmh 30.13 in1020.3 mb - 0.00 in0.0 mm 0.00 in0.0 mm
01:30 AM 24.0°F-4.4°C 18.4°F-7.6°C 79% 2.8 mph NE4.5 kmh NE 4.0 mph6.4 kmh 30.13 in1020.3 mb - 0.00 in0.0 mm 0.00 in0.0 mm
01:40 AM 24.1°F-4.4°C 18.2°F-7.7°C 78% 0.8 mph NE1.3 kmh NE 3.0 mph4.8 kmh 30.12 in1020.0 mb - 0.00 in0.0 mm 0.00 in0.0 mm
01:50 AM 24.4°F-4.2°C 17.9°F-7.8°C 76% 2.9 mph NNW4.7 kmh NNW 5.0 mph8.0 kmh 30.12 in1020.0 mb - 0.00 in0.0 mm 0.00 in0.0 mm
02:00 AM 24.5°F-4.2°C 16.8°F-8.4°C 72% 1.2 mph N1.9 kmh N 1.0 mph1.6 kmh 30.12 in1020.0 mb - 0.00 in0.0 mm 0.00 in0.0 mm
02:10 AM 24.7°F-4.1°C 16.3°F-8.7°C 70% 1.6 mph NNW2.6 kmh NNW 5.0 mph8.0 kmh 30.12 in1020.0 mb - 0.00 in0.0 mm 0.00 in0.0 mm
02:20 AM 24.9°F-3.9°C 15.8°F-9.0°C 68% 2.3 mph NW3.7 kmh NW 5.0 mph8.0 kmh 30.12 in1020.0 mb - 0.00 in0.0 mm 0.00 in0.0 mm
02:30 AM 25.1°F-3.8°C 15.3°F-9.3°C 66% 3.2 mph NW5.1 kmh NW 8.0 mph12.9 kmh 30.13 in1020.3 mb - 0.00 in0.0 mm 0.00 in0.0 mm
02:40 AM 25.2°F-3.8°C 14.0°F-10.0°C 62% 2.1 mph NNW3.4 kmh NNW 7.0 mph11.3 kmh 30.13 in1020.3 mb - 0.00 in0.0 mm 0.00 in0.0 mm
02:50 AM 25.3°F-3.7°C 12.6°F-10.8°C 58% 3.9 mph NW6.3 kmh NW 9.0 mph14.5 kmh 30.13 in1020.3 mb - 0.00 in0.0 mm 0.00 in0.0 mm
03:00 AM 25.3°F-3.7°C 11.7°F-11.3°C 56% 3.2 mph NW5.1 kmh NW 6.0 mph9.7 kmh 30.14 in1020.7 mb - 0.00 in0.0 mm 0.00 in0.0 mm
03:10 AM 25.0°F-3.9°C 11.1°F-11.6°C 55% 2.2 mph NW3.5 kmh NW 2.0 mph3.2 kmh 30.14 in1020.7 mb - 0.00 in0.0 mm 0.00 in0.0 mm
03:20 AM 25.2°F-3.8°C 11.2°F-11.6°C 55% 0.5 mph WNW0.8 kmh WNW 1.0 mph1.6 kmh 30.13 in1020.3 mb - 0.00 in0.0 mm 0.00 in0.0 mm
03:30 AM 25.1°F-3.8°C 10.8°F-11.8°C 54% 3.4 mph N5.5 kmh N 14.0 mph22.5 kmh 30.14 in1020.7 mb - 0.00 in0.0 mm 0.00 in0.0 mm
03:40 AM 25.0°F-3.9°C 11.9°F-11.2°C 57% 3.5 mph NW5.6 kmh NW 13.0 mph20.9 kmh 30.14 in1020.7 mb - 0.00 in0.0 mm 0.00 in0.0 mm
03:50 AM 25.0°F-3.9°C 12.3°F-10.9°C 58% 2.9 mph NE4.7 kmh NE 7.0 mph11.3 kmh 30.14 in1020.7 mb - 0.00 in0.0 mm 0.00 in0.0 mm
04:00 AM 24.8°F-4.0°C 11.7°F-11.3°C 57% 0.7 mph N1.1 kmh N 3.0 mph4.8 kmh 30.14 in1020.7 mb - 0.00 in0.0 mm 0.00 in0.0 mm
04:10 AM 24.7°F-4.1°C 10.8°F-11.8°C 55% 1.9 mph NW3.1 kmh NW 9.0 mph14.5 kmh 30.14 in1020.7 mb - 0.00 in0.0 mm 0.00 in0.0 mm
04:20 AM 24.7°F-4.1°C 10.4°F-12.0°C 54% 1.8 mph N2.9 kmh N 5.0 mph8.0 kmh 30.15 in1021.0 mb - 0.00 in0.0 mm 0.00 in0.0 mm
04:30 AM 24.8°F-4.0°C 9.2°F-12.7°C 51% 4.0 mph NNW6.4 kmh NNW 5.0 mph8.0 kmh 30.15 in1021.0 mb - 0.00 in0.0 mm 0.00 in0.0 mm
04:40 AM 24.8°F-4.0°C 8.3°F-13.2°C 49% 4.1 mph ENE6.6 kmh ENE 6.0 mph9.7 kmh 30.16 in1021.3 mb - 0.00 in0.0 mm 0.00 in0.0 mm
04:50 AM 24.9°F-3.9°C 7.9°F-13.4°C 48% 3.6 mph NNW5.8 kmh NNW 11.0 mph17.7 kmh 30.16 in1021.3 mb - 0.00 in0.0 mm 0.00 in0.0 mm
05:00 AM 24.8°F-4.0°C 8.3°F-13.2°C 49% 0.6 mph NW1.0 kmh NW 5.0 mph8.0 kmh 30.16 in1021.3 mb - 0.00 in0.0 mm 0.00 in0.0 mm
05:10 AM 24.7°F-4.1°C 7.8°F-13.4°C 48% 3.7 mph WNW6.0 kmh WNW 6.0 mph9.7 kmh 30.16 in1021.3 mb - 0.00 in0.0 mm 0.00 in0.0 mm
05:20 AM 24.6°F-4.1°C 7.2°F-13.8°C 47% 4.1 mph NW6.6 kmh NW 7.0 mph11.3 kmh 30.17 in1021.7 mb - 0.00 in0.0 mm 0.00 in0.0 mm
05:30 AM 24.4°F-4.2°C 7.5°F-13.6°C 48% 2.2 mph NNW3.5 kmh NNW 4.0 mph6.4 kmh 30.18 in1022.0 mb - 0.00 in0.0 mm 0.00 in0.0 mm
05:40 AM 24.2°F-4.3°C 8.2°F-13.2°C 50% 0.3 mph NW0.5 kmh NW 6.0 mph9.7 kmh 30.18 in1022.0 mb - 0.00 in0.0 mm 0.00 in0.0 mm
05:50 AM 24.1°F-4.4°C 8.6°F-13.0°C 51% 1.9 mph NW3.1 kmh NW 4.0 mph6.4 kmh 30.18 in1022.0 mb - 0.00 in0.0 mm 0.00 in0.0 mm
06:00 AM 24.2°F-4.3°C 9.1°F-12.7°C 52% 2.4 mph NNW3.9 kmh NNW 3.0 mph4.8 kmh 30.19 in1022.4 mb - 0.00 in0.0 mm 0.00 in0.0 mm
06:10 AM 24.0°F-4.4°C 8.9°F-12.8°C 52% 0.5 mph NE0.8 kmh NE 1.0 mph1.6 kmh 30.19 in1022.4 mb - 0.00 in0.0 mm 0.00 in0.0 mm
06:20 AM 24.0°F-4.4°C 8.9°F-12.8°C 52% 0.9 mph E1.4 kmh E 2.0 mph3.2 kmh 30.20 in1022.7 mb - 0.00 in0.0 mm 0.00 in0.0 mm
06:30 AM 24.0°F-4.4°C 8.9°F-12.8°C 52% Calm Calm 2.0 mph3.2 kmh 30.20 in1022.7 mb - 0.00 in0.0 mm 0.00 in0.0 mm
06:40 AM 24.0°F-4.4°C 8.5°F-13.1°C 51% 0.8 mph NE1.3 kmh NE 3.0 mph4.8 kmh 30.20 in1022.7 mb - 0.00 in0.0 mm 0.00 in0.0 mm
06:50 AM 24.0°F-4.4°C 8.9°F-12.8°C 52% 0.9 mph NNW1.4 kmh NNW 3.0 mph4.8 kmh 30.21 in1023.0 mb - 0.00 in0.0 mm 0.00 in0.0 mm
07:00 AM 24.0°F-4.4°C 8.9°F-12.8°C 52% 0.4 mph WSW0.6 kmh WSW 2.0 mph3.2 kmh 30.22 in1023.4 mb - 0.00 in0.0 mm 0.00 in0.0 mm
07:10 AM 23.9°F-4.5°C 8.8°F-12.9°C 52% 1.6 mph E2.6 kmh E 3.0 mph4.8 kmh 30.22 in1023.4 mb - 0.00 in0.0 mm 0.00 in0.0 mm
07:20 AM 23.8°F-4.6°C 8.7°F-12.9°C 52% 0.5 mph N0.8 kmh N 4.0 mph6.4 kmh 30.23 in1023.7 mb - 0.00 in0.0 mm 0.00 in0.0 mm
07:30 AM 23.6°F-4.7°C 8.5°F-13.1°C 52% 1.7 mph NE2.7 kmh NE 3.0 mph4.8 kmh 30.23 in1023.7 mb - 0.00 in0.0 mm 0.00 in0.0 mm
07:40 AM 23.5°F-4.7°C 8.9°F-12.8°C 53% 2.6 mph W4.2 kmh W 4.0 mph6.4 kmh 30.23 in1023.7 mb - 0.00 in0.0 mm 0.00 in0.0 mm
07:50 AM 23.6°F-4.7°C 8.9°F-12.8°C 53% 0.7 mph NW1.1 kmh NW 2.0 mph3.2 kmh 30.24 in1024.0 mb - 0.00 in0.0 mm 0.00 in0.0 mm
08:00 AM 23.8°F-4.6°C 9.1°F-12.7°C 53% 1.7 mph ENE2.7 kmh ENE 4.0 mph6.4 kmh 30.25 in1024.4 mb - 0.00 in0.0 mm 0.00 in0.0 mm
08:10 AM 24.0°F-4.4°C 8.9°F-12.8°C 52% 0.8 mph NNW1.3 kmh NNW 4.0 mph6.4 kmh 30.25 in1024.4 mb - 0.00 in0.0 mm 0.00 in0.0 mm
08:20 AM 24.3°F-4.3°C 9.6°F-12.4°C 53% 1.4 mph NW2.3 kmh NW 7.0 mph11.3 kmh 30.25 in1024.4 mb - 0.00 in0.0 mm 0.00 in0.0 mm
08:30 AM 24.7°F-4.1°C 9.1°F-12.7°C 51% 2.6 mph N4.2 kmh N 5.0 mph8.0 kmh 30.26 in1024.7 mb - 0.00 in0.0 mm 0.00 in0.0 mm
08:40 AM 25.2°F-3.8°C 8.6°F-13.0°C 49% 1.8 mph NNW2.9 kmh NNW 5.0 mph8.0 kmh 30.26 in1024.7 mb - 0.00 in0.0 mm 0.00 in0.0 mm
08:50 AM 25.8°F-3.4°C 7.9°F-13.4°C 46% 4.3 mph NNW6.9 kmh NNW 8.0 mph12.9 kmh 30.26 in1024.7 mb - 0.00 in0.0 mm 0.00 in0.0 mm
09:00 AM 26.3°F-3.2°C 8.3°F-13.2°C 46% 3.3 mph NW5.3 kmh NW 9.0 mph14.5 kmh 30.27 in1025.1 mb - 0.00 in0.0 mm 0.00 in0.0 mm
09:10 AM 26.8°F-2.9°C 8.3°F-13.2°C 45% 4.5 mph NE7.2 kmh NE 9.0 mph14.5 kmh 30.27 in1025.1 mb - 0.00 in0.0 mm 0.00 in0.0 mm
09:20 AM 27.1°F-2.7°C 8.6°F-13.0°C 45% 1.9 mph NE3.1 kmh NE 6.0 mph9.7 kmh 30.27 in1025.1 mb - 0.00 in0.0 mm 0.00 in0.0 mm
09:30 AM 27.6°F-2.4°C 8.5°F-13.1°C 44% 3.9 mph SW6.3 kmh SW 9.0 mph14.5 kmh 30.28 in1025.4 mb - 0.00 in0.0 mm 0.00 in0.0 mm
09:40 AM 28.1°F-2.2°C 9.0°F-12.8°C 44% 1.8 mph NE2.9 kmh NE 2.0 mph3.2 kmh 30.28 in1025.4 mb - 0.00 in0.0 mm 0.00 in0.0 mm
09:50 AM 28.8°F-1.8°C 8.6°F-13.0°C 42% 1.1 mph WNW1.8 kmh WNW 4.0 mph6.4 kmh 30.27 in1025.1 mb - 0.00 in0.0 mm 0.00 in0.0 mm
10:00 AM 29.2°F-1.6°C 9.0°F-12.8°C 42% 1.8 mph WNW2.9 kmh WNW 5.0 mph8.0 kmh 30.28 in1025.4 mb - 0.00 in0.0 mm 0.00 in0.0 mm
10:10 AM 29.9°F-1.2°C 8.5°F-13.1°C 40% 2.0 mph W3.2 kmh W 2.0 mph3.2 kmh 30.28 in1025.4 mb - 0.00 in0.0 mm 0.00 in0.0 mm
10:20 AM 30.2°F-1.0°C 9.3°F-12.6°C 41% 3.0 mph NW4.8 kmh NW 5.0 mph8.0 kmh 30.28 in1025.4 mb - 0.00 in0.0 mm 0.00 in0.0 mm
10:30 AM 30.2°F-1.0°C 8.7°F-12.9°C 40% 3.2 mph WSW5.1 kmh WSW 7.0 mph11.3 kmh 30.28 in1025.4 mb - 0.00 in0.0 mm 0.00 in0.0 mm
10:40 AM 30.8°F-0.7°C 10.4°F-12.0°C 42% 2.2 mph NW3.5 kmh NW 7.0 mph11.3 kmh 30.28 in1025.4 mb - 0.00 in0.0 mm 0.00 in0.0 mm
10:50 AM 30.8°F-0.7°C 9.3°F-12.6°C 40% 3.2 mph WNW5.1 kmh WNW 6.0 mph9.7 kmh 30.28 in1025.4 mb - 0.00 in0.0 mm 0.00 in0.0 mm
11:00 AM 31.1°F-0.5°C 9.6°F-12.4°C 40% 4.8 mph NNW7.7 kmh NNW 9.0 mph14.5 kmh 30.27 in1025.1 mb - 0.00 in0.0 mm 0.00 in0.0 mm
11:10 AM 31.7°F-0.2°C 9.5°F-12.5°C 39% 3.5 mph NW5.6 kmh NW 8.0 mph12.9 kmh 30.27 in1025.1 mb - 0.00 in0.0 mm 0.00 in0.0 mm
11:20 AM 31.9°F-0.1°C 7.9°F-13.4°C 36% 4.2 mph SW6.8 kmh SW 6.0 mph9.7 kmh 30.27 in1025.1 mb - 0.00 in0.0 mm 0.00 in0.0 mm
11:30 AM 32.2°F0.1°C 8.2°F-13.2°C 36% 1.4 mph NE2.3 kmh NE 3.0 mph4.8 kmh 30.27 in1025.1 mb - 0.00 in0.0 mm 0.00 in0.0 mm
11:40 AM 33.4°F0.8°C 8.0°F-13.3°C 34% 2.7 mph N4.3 kmh N 3.0 mph4.8 kmh 30.27 in1025.1 mb - 0.00 in0.0 mm 0.00 in0.0 mm
11:50 AM 33.3°F0.7°C 8.6°F-13.0°C 35% 3.3 mph WNW5.3 kmh WNW 6.0 mph9.7 kmh 30.27 in1025.1 mb - 0.00 in0.0 mm 0.00 in0.0 mm
12:00 PM 33.7°F0.9°C 7.6°F-13.6°C 33% 3.2 mph NW5.1 kmh NW 9.0 mph14.5 kmh 30.27 in1025.1 mb - 0.00 in0.0 mm 0.00 in0.0 mm
12:10 PM 34.1°F1.2°C 8.0°F-13.3°C 33% 4.5 mph E7.2 kmh E 9.0 mph14.5 kmh 30.27 in1025.1 mb - 0.00 in0.0 mm 0.00 in0.0 mm
12:20 PM 34.8°F1.6°C 9.3°F-12.6°C 34% 1.1 mph W1.8 kmh W 5.0 mph8.0 kmh 30.26 in1024.7 mb - 0.00 in0.0 mm 0.00 in0.0 mm
12:30 PM 34.9°F1.6°C 7.3°F-13.7°C 31% 3.0 mph N4.8 kmh N 10.0 mph16.1 kmh 30.26 in1024.7 mb - 0.00 in0.0 mm 0.00 in0.0 mm
12:40 PM 35.1°F1.7°C 7.5°F-13.6°C 31% 3.2 mph N5.1 kmh N 5.0 mph8.0 kmh 30.26 in1024.7 mb - 0.00 in0.0 mm 0.00 in0.0 mm
12:50 PM 35.7°F2.1°C 8.0°F-13.3°C 31% 3.2 mph N5.1 kmh N 6.0 mph9.7 kmh 30.25 in1024.4 mb - 0.00 in0.0 mm 0.00 in0.0 mm
01:00 PM 36.1°F2.3°C 7.6°F-13.6°C 30% 4.4 mph W7.1 kmh W 7.0 mph11.3 kmh 30.24 in1024.0 mb - 0.00 in0.0 mm 0.00 in0.0 mm
01:10 PM 37.1°F2.8°C 8.5°F-13.1°C 30% 2.5 mph WNW4.0 kmh WNW 7.0 mph11.3 kmh 30.25 in1024.4 mb - 0.00 in0.0 mm 0.00 in0.0 mm
01:20 PM 37.1°F2.8°C 8.4°F-13.1°C 30% 2.2 mph N3.5 kmh N 4.0 mph6.4 kmh 30.24 in1024.0 mb - 0.00 in0.0 mm 0.00 in0.0 mm
01:30 PM 37.1°F2.8°C 7.7°F-13.5°C 29% 0.9 mph NNW1.4 kmh NNW 4.0 mph6.4 kmh 30.24 in1024.0 mb - 0.00 in0.0 mm 0.00 in0.0 mm
01:40 PM 37.5°F3.1°C 8.8°F-12.9°C 30% 2.6 mph S4.2 kmh S 5.0 mph8.0 kmh 30.24 in1024.0 mb - 0.00 in0.0 mm 0.00 in0.0 mm
01:50 PM 37.4°F3.0°C 8.7°F-12.9°C 30% 2.2 mph WSW3.5 kmh WSW 2.0 mph3.2 kmh 30.23 in1023.7 mb - 0.00 in0.0 mm 0.00 in0.0 mm
02:00 PM 38.1°F3.4°C 8.6°F-13.0°C 29% 3.0 mph W4.8 kmh W 4.0 mph6.4 kmh 30.23 in1023.7 mb - 0.00 in0.0 mm 0.00 in0.0 mm
02:10 PM 38.7°F3.7°C 9.8°F-12.3°C 30% 2.2 mph WSW3.5 kmh WSW 4.0 mph6.4 kmh 30.22 in1023.4 mb - 0.00 in0.0 mm 0.00 in0.0 mm
02:20 PM 39.2°F4.0°C 10.3°F-12.1°C 30% 3.6 mph W5.8 kmh W 5.0 mph8.0 kmh 30.22 in1023.4 mb - 0.00 in0.0 mm 0.00 in0.0 mm
02:30 PM 38.6°F3.7°C 8.3°F-13.2°C 28% 1.8 mph WNW2.9 kmh WNW 2.0 mph3.2 kmh 30.21 in1023.0 mb - 0.00 in0.0 mm 0.00 in0.0 mm
02:40 PM 39.3°F4.1°C 8.9°F-12.8°C 28% 3.3 mph NW5.3 kmh NW 5.0 mph8.0 kmh 30.20 in1022.7 mb - 0.00 in0.0 mm 0.00 in0.0 mm
02:50 PM 40.2°F4.6°C 10.4°F-12.0°C 29% 1.8 mph NE2.9 kmh NE 4.0 mph6.4 kmh 30.20 in1022.7 mb - 0.00 in0.0 mm 0.00 in0.0 mm
03:00 PM 41.0°F5.0°C 10.3°F-12.1°C 28% 0.2 mph W0.3 kmh W 2.0 mph3.2 kmh 30.20 in1022.7 mb - 0.00 in0.0 mm 0.00 in0.0 mm
03:10 PM 40.6°F4.8°C 9.2°F-12.7°C 27% 4.0 mph SSE6.4 kmh SSE 5.0 mph8.0 kmh 30.19 in1022.4 mb - 0.00 in0.0 mm 0.00 in0.0 mm
03:20 PM 40.4°F4.7°C 9.0°F-12.8°C 27% 2.6 mph WSW4.2 kmh WSW 6.0 mph9.7 kmh 30.19 in1022.4 mb - 0.00 in0.0 mm 0.00 in0.0 mm
03:30 PM 40.5°F4.7°C 9.1°F-12.7°C 27% 3.3 mph SW5.3 kmh SW 6.0 mph9.7 kmh 30.18 in1022.0 mb - 0.00 in0.0 mm 0.00 in0.0 mm
03:40 PM 40.8°F4.9°C 8.5°F-13.1°C 26% 2.0 mph NE3.2 kmh NE 3.0 mph4.8 kmh 30.18 in1022.0 mb - 0.00 in0.0 mm 0.00 in0.0 mm
03:50 PM 41.2°F5.1°C 9.7°F-12.4°C 27% 2.9 mph SW4.7 kmh SW 5.0 mph8.0 kmh 30.17 in1021.7 mb - 0.00 in0.0 mm 0.00 in0.0 mm
04:00 PM 41.6°F5.3°C 10.1°F-12.2°C 27% 0.7 mph W1.1 kmh W 4.0 mph6.4 kmh 30.16 in1021.3 mb - 0.00 in0.0 mm 0.00 in0.0 mm
04:10 PM 42.1°F5.6°C 11.3°F-11.5°C 28% 2.0 mph NNW3.2 kmh NNW 3.0 mph4.8 kmh 30.16 in1021.3 mb - 0.00 in0.0 mm 0.00 in0.0 mm
04:20 PM 41.9°F5.5°C 9.4°F-12.6°C 26% 2.8 mph WSW4.5 kmh WSW 5.0 mph8.0 kmh 30.16 in1021.3 mb - 0.00 in0.0 mm 0.00 in0.0 mm
04:30 PM 42.8°F6.0°C 10.2°F-12.1°C 26% 1.5 mph SW2.4 kmh SW 3.0 mph4.8 kmh 30.16 in1021.3 mb - 0.00 in0.0 mm 0.00 in0.0 mm
04:40 PM 43.3°F6.3°C 10.7°F-11.8°C 26% 1.5 mph WSW2.4 kmh WSW 2.0 mph3.2 kmh 30.16 in1021.3 mb - 0.00 in0.0 mm 0.00 in0.0 mm
04:50 PM 43.3°F6.3°C 10.7°F-11.8°C 26% 1.9 mph WSW3.1 kmh WSW 2.0 mph3.2 kmh 30.16 in1021.3 mb - 0.00 in0.0 mm 0.00 in0.0 mm
05:00 PM 43.2°F6.2°C 10.6°F-11.9°C 26% 0.8 mph W1.3 kmh W 4.0 mph6.4 kmh 30.16 in1021.3 mb - 0.00 in0.0 mm 0.00 in0.0 mm
05:10 PM 43.8°F6.6°C 11.1°F-11.6°C 26% 1.4 mph WSW2.3 kmh WSW 4.0 mph6.4 kmh 30.16 in1021.3 mb - 0.00 in0.0 mm 0.00 in0.0 mm
05:20 PM 44.4°F6.9°C 11.6°F-11.3°C 26% 1.6 mph NW2.6 kmh NW 5.0 mph8.0 kmh 30.16 in1021.3 mb - 0.00 in0.0 mm 0.00 in0.0 mm
05:30 PM 43.5°F6.4°C 10.9°F-11.7°C 26% 2.0 mph S3.2 kmh S 3.0 mph4.8 kmh 30.15 in1021.0 mb - 0.00 in0.0 mm 0.00 in0.0 mm
05:40 PM 45.1°F7.3°C 11.3°F-11.5°C 25% 2.2 mph WNW3.5 kmh WNW 3.0 mph4.8 kmh 30.16 in1021.3 mb - 0.00 in0.0 mm 0.00 in0.0 mm
05:50 PM 44.1°F6.7°C 10.5°F-11.9°C 25% 2.2 mph WNW3.5 kmh WNW 3.0 mph4.8 kmh 30.16 in1021.3 mb - 0.00 in0.0 mm 0.00 in0.0 mm
06:00 PM 44.5°F6.9°C 9.9°F-12.3°C 24% 1.3 mph WSW2.1 kmh WSW 3.0 mph4.8 kmh 30.15 in1021.0 mb - 0.00 in0.0 mm 0.00 in0.0 mm
06:10 PM 44.7°F7.1°C 10.1°F-12.2°C 24% 1.0 mph WSW1.6 kmh WSW 2.0 mph3.2 kmh 30.15 in1021.0 mb - 0.00 in0.0 mm 0.00 in0.0 mm
06:20 PM 44.5°F6.9°C 9.0°F-12.8°C 23% 2.0 mph SW3.2 kmh SW 3.0 mph4.8 kmh 30.15 in1021.0 mb - 0.00 in0.0 mm 0.00 in0.0 mm
06:30 PM 44.5°F6.9°C 9.9°F-12.3°C 24% 2.4 mph WNW3.9 kmh WNW 5.0 mph8.0 kmh 30.15 in1021.0 mb - 0.00 in0.0 mm 0.00 in0.0 mm
06:40 PM 44.8°F7.1°C 11.1°F-11.6°C 25% 1.4 mph WSW2.3 kmh WSW 2.0 mph3.2 kmh 30.15 in1021.0 mb - 0.00 in0.0 mm 0.00 in0.0 mm
06:50 PM 44.0°F6.7°C 11.3°F-11.5°C 26% 1.7 mph WSW2.7 kmh WSW 3.0 mph4.8 kmh 30.15 in1021.0 mb - 0.00 in0.0 mm 0.00 in0.0 mm
07:00 PM 43.6°F6.4°C 10.9°F-11.7°C 26% 0.3 mph S0.5 kmh S 1.0 mph1.6 kmh 30.15 in1021.0 mb - 0.00 in0.0 mm 0.00 in0.0 mm
07:10 PM 42.8°F6.0°C 11.1°F-11.6°C 27% 0.8 mph WSW1.3 kmh WSW 2.0 mph3.2 kmh 30.15 in1021.0 mb - 0.00 in0.0 mm 0.00 in0.0 mm
07:20 PM 41.7°F5.4°C 11.7°F-11.3°C 29% 0.2 mph WSW0.3 kmh WSW 2.0 mph3.2 kmh 30.14 in1020.7 mb - 0.00 in0.0 mm 0.00 in0.0 mm
07:30 PM 41.1°F5.1°C 11.2°F-11.6°C 29% 0.4 mph SSW0.6 kmh SSW 1.0 mph1.6 kmh 30.14 in1020.7 mb - 0.00 in0.0 mm 0.00 in0.0 mm
07:40 PM 40.4°F4.7°C 11.4°F-11.4°C 30% Calm Calm -- 30.14 in1020.7 mb - 0.00 in0.0 mm 0.00 in0.0 mm
07:50 PM 39.5°F4.2°C 12.7°F-10.7°C 33% Calm Calm -- 30.14 in1020.7 mb - 0.00 in0.0 mm 0.00 in0.0 mm
08:00 PM 38.6°F3.7°C 11.2°F-11.6°C 32% Calm Calm -- 30.14 in1020.7 mb - 0.00 in0.0 mm 0.00 in0.0 mm
08:10 PM 38.6°F3.7°C 10.5°F-11.9°C 31% Calm Calm -- 30.14 in1020.7 mb - 0.00 in0.0 mm 0.00 in0.0 mm
08:20 PM 38.0°F3.3°C 12.7°F-10.7°C 35% Calm Calm -- 30.13 in1020.3 mb - 0.00 in0.0 mm 0.00 in0.0 mm
08:30 PM 37.1°F2.8°C 11.9°F-11.2°C 35% Calm Calm 1.0 mph1.6 kmh 30.13 in1020.3 mb - 0.00 in0.0 mm 0.00 in0.0 mm
08:40 PM 36.5°F2.5°C 15.0°F-9.4°C 41% Calm Calm -- 30.13 in1020.3 mb - 0.00 in0.0 mm 0.00 in0.0 mm
08:50 PM 35.9°F2.2°C 12.1°F-11.1°C 37% 0.1 mph SE0.2 kmh SE 1.0 mph1.6 kmh 30.12 in1020.0 mb - 0.00 in0.0 mm 0.00 in0.0 mm
09:00 PM 36.4°F2.4°C 11.3°F-11.5°C 35% 0.3 mph ESE0.5 kmh ESE 1.0 mph1.6 kmh 30.12 in1020.0 mb - 0.00 in0.0 mm 0.00 in0.0 mm
09:10 PM 36.7°F2.6°C 13.4°F-10.3°C 38% Calm Calm 2.0 mph3.2 kmh 30.12 in1020.0 mb - 0.00 in0.0 mm 0.00 in0.0 mm
09:20 PM 35.9°F2.2°C 17.1°F-8.3°C 46% 2.9 mph SW4.7 kmh SW 3.0 mph4.8 kmh 30.13 in1020.3 mb - 0.00 in0.0 mm 0.00 in0.0 mm
09:30 PM 35.7°F2.1°C 18.9°F-7.3°C 50% 0.4 mph SSE0.6 kmh SSE 2.0 mph3.2 kmh 30.13 in1020.3 mb - 0.00 in0.0 mm 0.00 in0.0 mm
09:40 PM 35.4°F1.9°C 19.9°F-6.7°C 53% 1.6 mph S2.6 kmh S 5.0 mph8.0 kmh 30.13 in1020.3 mb - 0.00 in0.0 mm 0.00 in0.0 mm
09:50 PM 35.0°F1.7°C 20.8°F-6.2°C 56% 0.3 mph SSE0.5 kmh SSE 1.0 mph1.6 kmh 30.13 in1020.3 mb - 0.00 in0.0 mm 0.00 in0.0 mm
10:00 PM 34.6°F1.4°C 21.3°F-5.9°C 58% 1.5 mph SSE2.4 kmh SSE 3.0 mph4.8 kmh 30.13 in1020.3 mb - 0.00 in0.0 mm 0.00 in0.0 mm
10:10 PM 34.5°F1.4°C 22.0°F-5.6°C 60% 0.6 mph SE1.0 kmh SE 1.0 mph1.6 kmh 30.13 in1020.3 mb - 0.00 in0.0 mm 0.00 in0.0 mm
10:20 PM 34.4°F1.3°C 22.3°F-5.4°C 61% 0.9 mph SSE1.4 kmh SSE 2.0 mph3.2 kmh 30.12 in1020.0 mb - 0.00 in0.0 mm 0.00 in0.0 mm
10:30 PM 34.5°F1.4°C 22.5°F-5.3°C 61% 1.1 mph SSE1.8 kmh SSE 3.0 mph4.8 kmh 30.13 in1020.3 mb - 0.00 in0.0 mm 0.00 in0.0 mm
10:40 PM 35.3°F1.8°C 21.6°F-5.8°C 57% 0.5 mph S0.8 kmh S 3.0 mph4.8 kmh 30.13 in1020.3 mb - 0.00 in0.0 mm 0.00 in0.0 mm
10:50 PM 35.5°F1.9°C 21.8°F-5.7°C 57% 1.4 mph S2.3 kmh S 4.0 mph6.4 kmh 30.13 in1020.3 mb - 0.00 in0.0 mm 0.00 in0.0 mm
11:00 PM 35.4°F1.9°C 20.4°F-6.4°C 54% 1.7 mph SSE2.7 kmh SSE 3.0 mph4.8 kmh 30.12 in1020.0 mb - 0.00 in0.0 mm 0.00 in0.0 mm
11:10 PM 35.9°F2.2°C 18.6°F-7.4°C 49% 1.9 mph SSE3.1 kmh SSE 6.0 mph9.7 kmh 30.11 in1019.6 mb - 0.00 in0.0 mm 0.00 in0.0 mm
11:20 PM 36.0°F2.2°C 17.7°F-7.9°C 47% 2.9 mph SSW4.7 kmh SSW 8.0 mph12.9 kmh 30.11 in1019.6 mb - 0.00 in0.0 mm 0.00 in0.0 mm
11:30 PM 36.2°F2.3°C 15.8°F-9.0°C 43% 3.5 mph SE5.6 kmh SE 5.0 mph8.0 kmh 30.10 in1019.3 mb - 0.00 in0.0 mm 0.00 in0.0 mm
11:40 PM 36.5°F2.5°C 15.6°F-9.1°C 42% 1.4 mph SSW2.3 kmh SSW 6.0 mph9.7 kmh 30.11 in1019.6 mb - 0.00 in0.0 mm 0.00 in0.0 mm
11:50 PM 36.5°F2.5°C 15.6°F-9.1°C 42% 1.2 mph S1.9 kmh S 2.0 mph3.2 kmh 30.10 in1019.3 mb - 0.00 in0.0 mm 0.00 in0.0 mm